Time;durP1;ratioP1;P1;durP2;ratioP2;P2;SDS_P1;SDS_P2;PMS_P1;PMS_P2;Temp;Humidity;BMP_temperature;BMP_pressure;BME280_temperature;BME280_humidity;BME280_pressure;Samples;Min_cycle;Max_cycle;Signal;HPM_P1;HPM_P2
2022/04/08 00:00:34;;;;;;;3.35;1.27;;;;;;;;;;4938396;29;20500;-61
2022/04/08 00:03:00;;;;;;;3.00;1.02;;;;;;;;;;4938096;29;20169;-61
2022/04/08 00:05:26;;;;;;;2.38;0.75;;;;;;;;;;4938156;29;20173;-60
2022/04/08 00:07:52;;;;;;;6.43;1.17;;;;;;;;;;4938473;29;20169;-62
2022/04/08 00:10:18;;;;;;;2.97;0.90;;;;;;;;;;4938265;29;20210;-62
2022/04/08 00:12:44;;;;;;;1.88;0.90;;;;;;;;;;4938336;29;20231;-62
2022/04/08 00:15:10;;;;;;;2.22;1.15;;;;;;;;;;4938118;29;20173;-62
2022/04/08 00:17:36;;;;;;;4.18;1.02;;;;;;;;;;4937944;29;20587;-60
2022/04/08 00:20:03;;;;;;;2.25;1.08;;;;;;;;;;4938044;29;20169;-61
2022/04/08 00:22:29;;;;;;;2.78;1.10;;;;;;;;;;4938272;29;20176;-61
2022/04/08 00:24:55;;;;;;;2.63;1.20;;;;;;;;;;4938204;29;20517;-61
2022/04/08 00:27:21;;;;;;;2.60;0.80;;;;;;;;;;4938121;29;20173;-61
2022/04/08 00:29:47;;;;;;;2.35;0.73;;;;;;;;;;4937745;29;20208;-60
2022/04/08 00:32:13;;;;;;;0.63;0.52;;;;;;;;;;4937580;29;20187;-59
2022/04/08 00:34:39;;;;;;;1.55;0.70;;;;;;;;;;4937674;29;20496;-61
2022/04/08 00:37:05;;;;;;;2.45;0.60;;;;;;;;;;4937888;29;20177;-59
2022/04/08 00:39:31;;;;;;;2.05;0.52;;;;;;;;;;4937639;29;20173;-60
2022/04/08 00:42:00;;;;;;;3.17;0.60;;;;;;;;;;4937477;29;20184;-59
2022/04/08 00:44:26;;;;;;;4.45;1.00;;;;;;;;;;4937552;29;20176;-60
2022/04/08 00:46:51;;;;;;;3.42;0.63;;;;;;;;;;4937687;29;20173;-62
2022/04/08 00:49:17;;;;;;;1.85;0.63;;;;;;;;;;4937388;29;20280;-62
2022/04/08 00:51:43;;;;;;;1.85;0.63;;;;;;;;;;4937600;29;20200;-60
2022/04/08 00:54:10;;;;;;;1.17;0.60;;;;;;;;;;4937399;29;20172;-61
2022/04/08 00:56:36;;;;;;;3.15;0.50;;;;;;;;;;4937504;29;20177;-61
2022/04/08 00:59:02;;;;;;;4.10;0.60;;;;;;;;;;4937207;29;20252;-62
2022/04/08 01:01:28;;;;;;;1.10;0.40;;;;;;;;;;4936654;29;20586;-60
2022/04/08 01:03:54;;;;;;;3.85;0.52;;;;;;;;;;4937304;29;20161;-61
2022/04/08 01:06:20;;;;;;;1.15;0.70;;;;;;;;;;4937169;29;20540;-61
2022/04/08 01:08:49;;;;;;;1.20;0.55;;;;;;;;;;4937115;29;20284;-61
2022/04/08 01:11:16;;;;;;;3.15;0.60;;;;;;;;;;4937354;29;20240;-61
2022/04/08 01:13:42;;;;;;;4.15;0.80;;;;;;;;;;4937157;29;20177;-62
2022/04/08 01:16:08;;;;;;;3.35;0.73;;;;;;;;;;4937004;29;20254;-62
2022/04/08 01:18:34;;;;;;;3.67;0.60;;;;;;;;;;4936837;29;20571;-62
2022/04/08 01:21:05;;;;;;;4.25;0.80;;;;;;;;;;4937195;29;20196;-62
2022/04/08 01:23:32;;;;;;;3.28;1.25;;;;;;;;;;4936962;29;20260;-62
2022/04/08 01:25:58;;;;;;;2.15;0.60;;;;;;;;;;4936818;29;20179;-60
2022/04/08 01:28:25;;;;;;;1.73;0.60;;;;;;;;;;4936604;29;20193;-59
2022/04/08 01:30:51;;;;;;;4.25;0.68;;;;;;;;;;4937075;29;20510;-61
2022/04/08 01:33:17;;;;;;;2.55;0.90;;;;;;;;;;4937004;29;20235;-62
2022/04/08 01:35:43;;;;;;;1.67;0.77;;;;;;;;;;4937150;29;20633;-62
2022/04/08 01:38:09;;;;;;;4.88;0.75;;;;;;;;;;4936542;29;20606;-62
2022/04/08 01:40:35;;;;;;;0.50;0.50;;;;;;;;;;4936621;29;20244;-62
2022/04/08 01:43:01;;;;;;;1.80;0.70;;;;;;;;;;4936591;29;20169;-62
2022/04/08 01:45:27;;;;;;;3.70;0.80;;;;;;;;;;4936566;29;20224;-62
2022/04/08 01:47:53;;;;;;;2.00;0.77;;;;;;;;;;4936457;29;20482;-60
2022/04/08 01:50:20;;;;;;;1.65;0.65;;;;;;;;;;4936292;29;20267;-60
2022/04/08 01:52:46;;;;;;;3.47;0.80;;;;;;;;;;4936456;29;20219;-61
2022/04/08 01:55:12;;;;;;;3.13;0.52;;;;;;;;;;4936636;29;20169;-59
2022/04/08 01:57:40;;;;;;;5.85;0.98;;;;;;;;;;4936435;29;20169;-61
2022/04/08 02:00:08;;;;;;;1.15;0.50;;;;;;;;;;4936954;29;20184;-61
2022/04/08 02:02:34;;;;;;;1.70;0.60;;;;;;;;;;4936571;29;20196;-61
2022/04/08 02:05:00;;;;;;;2.15;0.68;;;;;;;;;;4936221;29;20633;-61
2022/04/08 02:07:26;;;;;;;1.60;0.60;;;;;;;;;;4936648;29;20165;-61
2022/04/08 02:09:52;;;;;;;5.78;0.70;;;;;;;;;;4936195;29;20192;-61
2022/04/08 02:12:18;;;;;;;5.18;0.90;;;;;;;;;;4936907;29;20176;-61
2022/04/08 02:14:44;;;;;;;1.38;0.73;;;;;;;;;;4940159;29;20236;-60
2022/04/08 02:17:10;;;;;;;3.95;0.73;;;;;;;;;;4940253;29;20180;-61
2022/04/08 02:19:37;;;;;;;1.00;0.70;;;;;;;;;;4940199;29;20474;-60
2022/04/08 02:22:03;;;;;;;3.83;0.60;;;;;;;;;;4940074;29;20216;-61
2022/04/08 02:24:29;;;;;;;4.35;0.77;;;;;;;;;;4940017;29;20653;-61
2022/04/08 02:26:55;;;;;;;2.17;0.75;;;;;;;;;;4940254;29;20183;-61
2022/04/08 02:29:22;;;;;;;2.78;0.70;;;;;;;;;;4939820;29;20197;-61
2022/04/08 02:31:48;;;;;;;2.40;0.70;;;;;;;;;;4940399;29;20165;-61
2022/04/08 02:34:14;;;;;;;3.70;1.05;;;;;;;;;;4939763;29;20180;-61
2022/04/08 02:36:40;;;;;;;2.25;0.68;;;;;;;;;;4939808;29;20172;-61
2022/04/08 02:39:06;;;;;;;2.63;0.77;;;;;;;;;;4939875;29;20260;-61
2022/04/08 02:41:32;;;;;;;3.28;0.82;;;;;;;;;;4939715;29;20264;-61
2022/04/08 02:43:58;;;;;;;3.85;1.10;;;;;;;;;;4939712;29;20176;-60
2022/04/08 02:46:24;;;;;;;4.63;0.77;;;;;;;;;;4939546;29;20562;-61
2022/04/08 02:48:50;;;;;;;4.28;0.90;;;;;;;;;;4939638;29;20661;-61
2022/04/08 02:51:16;;;;;;;0.75;0.55;;;;;;;;;;4939504;29;20165;-61
2022/04/08 02:53:42;;;;;;;3.72;0.80;;;;;;;;;;4939645;29;20196;-61
2022/04/08 02:56:08;;;;;;;2.58;0.80;;;;;;;;;;4939486;29;20273;-59
2022/04/08 02:58:36;;;;;;;4.68;0.68;;;;;;;;;;4939593;29;20176;-61
2022/04/08 03:01:02;;;;;;;4.63;0.70;;;;;;;;;;4939383;29;20637;-61
2022/04/08 03:03:28;;;;;;;2.03;0.77;;;;;;;;;;4939443;29;20656;-61
2022/04/08 03:05:54;;;;;;;3.03;0.98;;;;;;;;;;4939391;29;20184;-61
2022/04/08 03:08:21;;;;;;;4.25;0.60;;;;;;;;;;4939185;29;20475;-61
2022/04/08 03:10:47;;;;;;;4.55;0.80;;;;;;;;;;4939348;29;20311;-61
2022/04/08 03:13:13;;;;;;;5.18;0.95;;;;;;;;;;4939379;29;20203;-60
2022/04/08 03:15:39;;;;;;;3.67;1.00;;;;;;;;;;4939098;29;20605;-62
2022/04/08 03:18:05;;;;;;;2.40;0.77;;;;;;;;;;4939176;29;20195;-62
2022/04/08 03:20:31;;;;;;;2.28;0.65;;;;;;;;;;4939373;29;20196;-61
2022/04/08 03:22:57;;;;;;;4.28;1.02;;;;;;;;;;4939257;29;20201;-62
2022/04/08 03:25:23;;;;;;;4.10;1.13;;;;;;;;;;4939316;29;20224;-62
2022/04/08 03:27:49;;;;;;;3.60;1.00;;;;;;;;;;4939484;29;20625;-62
2022/04/08 03:30:15;;;;;;;6.22;0.88;;;;;;;;;;4939328;29;20224;-61
2022/04/08 03:32:41;;;;;;;3.33;1.05;;;;;;;;;;4939287;29;20179;-61
2022/04/08 03:35:07;;;;;;;5.32;1.27;;;;;;;;;;4938966;29;20176;-61
2022/04/08 03:37:33;;;;;;;5.72;0.93;;;;;;;;;;4938820;29;20169;-61
2022/04/08 03:39:59;;;;;;;4.82;0.90;;;;;;;;;;4938575;29;20199;-61
2022/04/08 03:42:25;;;;;;;3.40;1.10;;;;;;;;;;4938864;29;20232;-61
2022/04/08 03:44:52;;;;;;;3.92;1.00;;;;;;;;;;4938983;29;20609;-61
2022/04/08 03:47:19;;;;;;;4.50;1.13;;;;;;;;;;4938965;29;20168;-60
2022/04/08 03:49:45;;;;;;;9.60;1.00;;;;;;;;;;4938674;29;20531;-61
2022/04/08 03:52:12;;;;;;;3.95;0.90;;;;;;;;;;4938498;29;20171;-62
2022/04/08 03:54:38;;;;;;;4.85;1.10;;;;;;;;;;4938413;29;20562;-62
2022/04/08 03:57:05;;;;;;;7.55;1.50;;;;;;;;;;4938533;29;20262;-62
2022/04/08 03:59:31;;;;;;;3.35;1.02;;;;;;;;;;4938654;29;20216;-62
2022/04/08 04:01:57;;;;;;;3.58;1.00;;;;;;;;;;4938624;29;20177;-62
2022/04/08 04:04:23;;;;;;;5.25;1.80;;;;;;;;;;4938262;29;20625;-62
2022/04/08 04:06:50;;;;;;;8.27;1.30;;;;;;;;;;4938249;29;20235;-61
2022/04/08 04:09:16;;;;;;;7.22;1.08;;;;;;;;;;4937970;29;20533;-62
2022/04/08 04:11:42;;;;;;;7.05;1.45;;;;;;;;;;4938261;29;20173;-62
2022/04/08 04:14:08;;;;;;;6.65;1.20;;;;;;;;;;4938153;29;20173;-62
2022/04/08 04:16:34;;;;;;;4.25;1.23;;;;;;;;;;4938159;29;20605;-62
2022/04/08 04:19:00;;;;;;;8.73;1.52;;;;;;;;;;4938072;29;20500;-62
2022/04/08 04:21:26;;;;;;;5.85;1.38;;;;;;;;;;4938169;29;20172;-62
2022/04/08 04:23:52;;;;;;;4.45;0.80;;;;;;;;;;4938215;29;20184;-62
2022/04/08 04:26:18;;;;;;;5.80;1.13;;;;;;;;;;4938052;29;20625;-62
2022/04/08 04:28:44;;;;;;;7.97;1.38;;;;;;;;;;4937823;29;20208;-61
2022/04/08 04:31:10;;;;;;;11.55;1.95;;;;;;;;;;4937842;29;20176;-62
2022/04/08 04:33:36;;;;;;;7.43;1.40;;;;;;;;;;4939143;29;20498;-62
2022/04/08 04:36:02;;;;;;;6.55;1.55;;;;;;;;;;4938962;29;20247;-62
2022/04/08 04:38:28;;;;;;;6.50;1.30;;;;;;;;;;4937780;29;20169;-62
2022/04/08 04:40:54;;;;;;;8.55;1.40;;;;;;;;;;4937511;29;20172;-62
2022/04/08 04:43:19;;;;;;;7.35;1.40;;;;;;;;;;4937601;29;20172;-62
2022/04/08 04:45:45;;;;;;;6.85;1.35;;;;;;;;;;4937937;29;20169;-62
2022/04/08 04:48:11;;;;;;;7.18;1.48;;;;;;;;;;4937482;29;20169;-61
2022/04/08 04:50:38;;;;;;;6.38;1.30;;;;;;;;;;4937480;29;20176;-62
2022/04/08 04:53:04;;;;;;;8.25;1.50;;;;;;;;;;4938475;29;20187;-62
2022/04/08 04:55:30;;;;;;;7.32;1.75;;;;;;;;;;4937525;29;20165;-62
2022/04/08 04:57:56;;;;;;;4.05;1.20;;;;;;;;;;4937612;29;20240;-61
2022/04/08 05:00:22;;;;;;;10.43;2.00;;;;;;;;;;4937293;29;20553;-61
2022/04/08 05:02:48;;;;;;;9.13;1.75;;;;;;;;;;4937505;29;20177;-61
2022/04/08 05:05:14;;;;;;;8.68;1.73;;;;;;;;;;4937037;29;20165;-61
2022/04/08 05:07:40;;;;;;;4.90;1.23;;;;;;;;;;4937074;29;20224;-61
2022/04/08 05:10:07;;;;;;;8.52;1.63;;;;;;;;;;4937297;29;20225;-61
2022/04/08 05:12:35;;;;;;;9.90;1.80;;;;;;;;;;4937376;29;20184;-61
2022/04/08 05:15:01;;;;;;;5.88;1.38;;;;;;;;;;4937017;29;20165;-62
2022/04/08 05:17:28;;;;;;;5.90;1.35;;;;;;;;;;4937041;29;20189;-61
2022/04/08 05:19:55;;;;;;;7.30;1.30;;;;;;;;;;4937237;29;20197;-61
2022/04/08 05:22:21;;;;;;;6.63;1.20;;;;;;;;;;4937418;29;20184;-62
2022/04/08 05:24:47;;;;;;;7.65;1.70;;;;;;;;;;4936873;29;20540;-62
2022/04/08 05:27:13;;;;;;;4.10;1.45;;;;;;;;;;4936937;29;20168;-62
2022/04/08 05:29:39;;;;;;;9.75;1.60;;;;;;;;;;4936871;29;20221;-62
2022/04/08 05:32:05;;;;;;;7.82;1.55;;;;;;;;;;4936885;29;20603;-64
2022/04/08 05:34:31;;;;;;;5.30;1.25;;;;;;;;;;4951883;29;20169;-62
2022/04/08 05:36:57;;;;;;;8.38;1.30;;;;;;;;;;4936599;29;20602;-63
2022/04/08 05:39:23;;;;;;;7.60;2.17;;;;;;;;;;4936897;29;20216;-62
2022/04/08 05:41:49;;;;;;;7.53;1.80;;;;;;;;;;4936549;29;20169;-62
2022/04/08 05:44:15;;;;;;;7.45;1.25;;;;;;;;;;4936528;29;20173;-62
2022/04/08 05:46:41;;;;;;;7.65;1.45;;;;;;;;;;4951370;28;20172;-62
2022/04/08 05:49:07;;;;;;;7.75;1.38;;;;;;;;;;4936762;29;20199;-62
2022/04/08 05:51:32;;;;;;;10.82;1.48;;;;;;;;;;4936779;29;20541;-62
2022/04/08 05:53:58;;;;;;;4.70;1.27;;;;;;;;;;4936810;29;20259;-62
2022/04/08 05:56:24;;;;;;;3.97;1.50;;;;;;;;;;4936322;29;20173;-62
2022/04/08 05:58:50;;;;;;;10.65;1.33;;;;;;;;;;4936589;29;20188;-62
2022/04/08 06:01:16;;;;;;;6.38;1.38;;;;;;;;;;4936681;29;20173;-62
2022/04/08 06:03:42;;;;;;;9.48;1.60;;;;;;;;;;4936470;29;20669;-62
2022/04/08 06:06:08;;;;;;;7.63;1.60;;;;;;;;;;4936785;29;20165;-63
2022/04/08 06:08:34;;;;;;;11.23;1.52;;;;;;;;;;4936229;29;20508;-62
2022/04/08 06:11:00;;;;;;;7.90;1.30;;;;;;;;;;4936562;29;20169;-62
2022/04/08 06:13:26;;;;;;;10.45;1.40;;;;;;;;;;4936453;29;20248;-62
2022/04/08 06:15:52;;;;;;;5.82;1.55;;;;;;;;;;4936448;29;20567;-62
2022/04/08 06:18:19;;;;;;;7.45;1.67;;;;;;;;;;4936195;29;20293;-62
2022/04/08 06:20:45;;;;;;;6.90;1.30;;;;;;;;;;4936045;29;20616;-63
2022/04/08 06:23:11;;;;;;;13.60;1.77;;;;;;;;;;4936332;29;20601;-63
2022/04/08 06:25:37;;;;;;;9.35;1.45;;;;;;;;;;4936279;29;20222;-62
2022/04/08 06:28:04;;;;;;;7.90;1.63;;;;;;;;;;4936382;29;20597;-61
2022/04/08 06:30:31;;;;;;;5.82;1.35;;;;;;;;;;4936140;29;20211;-61
2022/04/08 06:32:57;;;;;;;8.57;1.60;;;;;;;;;;4936333;29;20169;-62
2022/04/08 06:35:23;;;;;;;6.75;1.45;;;;;;;;;;4936571;29;20525;-63
2022/04/08 06:37:49;;;;;;;7.03;1.63;;;;;;;;;;4936152;29;20165;-62
2022/04/08 06:40:15;;;;;;;7.57;1.70;;;;;;;;;;4936074;29;20205;-62
2022/04/08 06:42:41;;;;;;;3.97;1.25;;;;;;;;;;4936214;29;20180;-62
2022/04/08 06:45:07;;;;;;;8.52;1.50;;;;;;;;;;4936193;29;20169;-62
2022/04/08 06:47:33;;;;;;;7.72;1.20;;;;;;;;;;4936041;29;20191;-61
2022/04/08 06:49:59;;;;;;;6.28;1.85;;;;;;;;;;4936173;29;20591;-62
2022/04/08 06:52:25;;;;;;;7.28;1.85;;;;;;;;;;4936681;29;20183;-63
2022/04/08 06:54:51;;;;;;;11.20;1.98;;;;;;;;;;4936732;29;20161;-62
2022/04/08 06:57:17;;;;;;;9.65;1.83;;;;;;;;;;4941084;29;20597;-62
2022/04/08 06:59:43;;;;;;;10.02;1.20;;;;;;;;;;4942481;29;20169;-63
2022/04/08 07:02:09;;;;;;;9.13;1.92;;;;;;;;;;4942862;29;20184;-62
2022/04/08 07:04:36;;;;;;;5.38;1.75;;;;;;;;;;4942357;29;20243;-62
2022/04/08 07:07:04;;;;;;;11.73;1.92;;;;;;;;;;4943086;29;20594;-63
2022/04/08 07:09:32;;;;;;;10.32;1.90;;;;;;;;;;4942948;29;20197;-63
2022/04/08 07:11:58;;;;;;;11.15;1.55;;;;;;;;;;4943530;29;20256;-63
2022/04/08 07:14:24;;;;;;;7.53;1.40;;;;;;;;;;4942859;29;20637;-63
2022/04/08 07:16:50;;;;;;;6.25;1.13;;;;;;;;;;4942259;29;20195;-63
2022/04/08 07:19:16;;;;;;;5.60;1.30;;;;;;;;;;4941886;29;20191;-63
2022/04/08 07:21:42;;;;;;;9.00;1.45;;;;;;;;;;4942843;29;20176;-63
2022/04/08 07:24:08;;;;;;;10.38;1.58;;;;;;;;;;4942459;29;20215;-62
2022/04/08 07:26:34;;;;;;;7.53;1.35;;;;;;;;;;4939397;29;20258;-62
2022/04/08 07:29:00;;;;;;;6.15;1.50;;;;;;;;;;4939577;29;20229;-62
2022/04/08 07:31:26;;;;;;;5.78;1.90;;;;;;;;;;4939228;29;20176;-62
2022/04/08 07:33:52;;;;;;;7.93;1.63;;;;;;;;;;4939226;29;20247;-61
2022/04/08 07:36:18;;;;;;;6.05;1.23;;;;;;;;;;4939555;29;20169;-65
2022/04/08 07:38:44;;;;;;;8.65;1.55;;;;;;;;;;4939122;29;20547;-62
2022/04/08 07:41:10;;;;;;;7.57;1.63;;;;;;;;;;4938707;29;20200;-62
2022/04/08 07:43:36;;;;;;;9.82;1.63;;;;;;;;;;4938677;29;20555;-63
2022/04/08 07:46:02;;;;;;;3.58;1.23;;;;;;;;;;4938987;29;20176;-63
2022/04/08 07:48:28;;;;;;;6.93;1.30;;;;;;;;;;4938474;29;20588;-63
2022/04/08 07:50:54;;;;;;;7.07;1.50;;;;;;;;;;4938872;29;20168;-63
2022/04/08 07:53:20;;;;;;;7.43;1.60;;;;;;;;;;4938578;29;20173;-62
2022/04/08 07:55:46;;;;;;;5.70;1.30;;;;;;;;;;4938766;29;20165;-61
2022/04/08 07:58:12;;;;;;;12.75;1.55;;;;;;;;;;4938427;29;20172;-62
2022/04/08 08:00:38;;;;;;;8.55;1.90;;;;;;;;;;4938436;29;20649;-61
2022/04/08 08:03:04;;;;;;;7.05;1.23;;;;;;;;;;4953379;29;20175;-62
2022/04/08 08:05:32;;;;;;;5.22;1.40;;;;;;;;;;4939259;29;20173;-62
2022/04/08 08:07:59;;;;;;;7.65;1.50;;;;;;;;;;4938629;29;20207;-64
2022/04/08 08:10:32;;;;;;;9.95;1.52;;;;;;;;;;4938650;29;20212;-62
2022/04/08 08:13:02;;;;;;;5.95;1.25;;;;;;;;;;4938489;29;20169;-62
2022/04/08 08:15:29;;;;;;;7.22;1.77;;;;;;;;;;4953143;29;20228;-62
2022/04/08 08:17:57;;;;;;;7.97;1.27;;;;;;;;;;4953469;29;20265;-62
2022/04/08 08:20:23;;;;;;;5.88;1.15;;;;;;;;;;4938261;29;20173;-61
2022/04/08 08:22:49;;;;;;;6.78;1.02;;;;;;;;;;4938940;29;20176;-61
2022/04/08 08:25:15;;;;;;;10.07;1.30;;;;;;;;;;4938077;29;20214;-62
2022/04/08 08:27:43;;;;;;;4.38;1.20;;;;;;;;;;4938052;29;20252;-62
2022/04/08 08:30:12;;;;;;;5.85;1.40;;;;;;;;;;4938028;29;20494;-62
2022/04/08 08:32:39;;;;;;;6.38;1.10;;;;;;;;;;4937879;29;20165;-62
2022/04/08 08:35:08;;;;;;;5.68;1.17;;;;;;;;;;4937939;29;20597;-62
2022/04/08 08:37:35;;;;;;;6.00;1.30;;;;;;;;;;4937956;29;20169;-61
2022/04/08 08:40:01;;;;;;;7.13;1.17;;;;;;;;;;4938214;29;20177;-66
2022/04/08 08:42:29;;;;;;;5.18;1.20;;;;;;;;;;4937766;29;20165;-62
2022/04/08 08:44:54;;;;;;;7.05;1.52;;;;;;;;;;4938203;29;20616;-63
2022/04/08 08:47:20;;;;;;;6.95;1.88;;;;;;;;;;4937808;29;20173;-62
2022/04/08 08:49:49;;;;;;;7.35;1.40;;;;;;;;;;4937844;29;20201;-63
2022/04/08 08:52:15;;;;;;;4.38;1.17;;;;;;;;;;4937885;29;20172;-63
2022/04/08 08:54:41;;;;;;;6.43;1.50;;;;;;;;;;4937744;29;20179;-62
2022/04/08 08:57:09;;;;;;;4.82;1.30;;;;;;;;;;4937619;29;20248;-63
2022/04/08 08:59:36;;;;;;;4.93;1.30;;;;;;;;;;4937794;29;20537;-62
2022/04/08 09:02:02;;;;;;;5.32;1.30;;;;;;;;;;4937528;29;20600;-63
2022/04/08 09:04:28;;;;;;;4.60;1.40;;;;;;;;;;4937369;29;20204;-62
2022/04/08 09:06:54;;;;;;;6.63;1.08;;;;;;;;;;4937643;29;20186;-63
2022/04/08 09:09:33;;;;;;;8.38;1.52;;;;;;;;;;4937672;29;20633;-62
2022/04/08 09:12:15;;;;;;;10.93;1.58;;;;;;;;;;4937216;29;20621;-61
2022/04/08 09:14:45;;;;;;;6.47;1.35;;;;;;;;;;4937688;29;20169;-62
2022/04/08 09:17:11;;;;;;;8.27;1.48;;;;;;;;;;4936997;29;20189;-62
2022/04/08 09:19:37;;;;;;;5.35;1.40;;;;;;;;;;4936856;29;20165;-61
2022/04/08 09:22:03;;;;;;;4.78;1.38;;;;;;;;;;4937038;29;20256;-62
2022/04/08 09:24:29;;;;;;;4.68;1.20;;;;;;;;;;4936821;29;20177;-62
2022/04/08 09:26:55;;;;;;;7.15;1.23;;;;;;;;;;4937119;29;20181;-62
2022/04/08 09:29:22;;;;;;;8.85;1.38;;;;;;;;;;4936833;29;20207;-63
2022/04/08 09:31:52;;;;;;;6.85;1.15;;;;;;;;;;4937247;29;20169;-61
2022/04/08 09:34:19;;;;;;;7.70;1.40;;;;;;;;;;4936892;29;20169;-63
2022/04/08 09:36:45;;;;;;;4.47;1.10;;;;;;;;;;4936874;29;20497;-63
2022/04/08 09:39:12;;;;;;;4.68;1.27;;;;;;;;;;4936725;29;20179;-62
2022/04/08 09:41:42;;;;;;;6.03;1.05;;;;;;;;;;4937168;29;20584;-62
2022/04/08 09:44:09;;;;;;;7.25;1.45;;;;;;;;;;4936828;29;20284;-63
2022/04/08 09:46:36;;;;;;;4.32;0.90;;;;;;;;;;4936740;29;20252;-63
2022/04/08 09:49:02;;;;;;;4.53;1.20;;;;;;;;;;4936802;29;20291;-63
2022/04/08 09:51:29;;;;;;;5.55;1.10;;;;;;;;;;4936700;29;20235;-62
2022/04/08 09:53:57;;;;;;;7.88;1.80;;;;;;;;;;4936273;29;20539;-63
2022/04/08 09:56:24;;;;;;;5.55;1.08;;;;;;;;;;4936188;29;20308;-63
2022/04/08 09:58:56;;;;;;;7.78;1.60;;;;;;;;;;4936472;29;20173;-62
2022/04/08 10:01:24;;;;;;;5.13;1.48;;;;;;;;;;4936546;29;20172;-61
2022/04/08 10:03:50;;;;;;;6.45;1.10;;;;;;;;;;4936670;29;20185;-63
2022/04/08 10:06:16;;;;;;;2.85;0.90;;;;;;;;;;4936593;29;20535;-63
2022/04/08 10:08:42;;;;;;;4.03;1.20;;;;;;;;;;4936371;29;20192;-62
2022/04/08 10:11:12;;;;;;;6.00;1.30;;;;;;;;;;4937029;29;20184;-62
2022/04/08 10:13:47;;;;;;;4.97;0.90;;;;;;;;;;4936497;29;20172;-62
2022/04/08 10:16:20;;;;;;;5.90;1.05;;;;;;;;;;4936794;29;20164;-62
2022/04/08 10:18:47;;;;;;;5.68;1.25;;;;;;;;;;4936394;29;20167;-62
2022/04/08 10:21:13;;;;;;;3.15;1.00;;;;;;;;;;4936330;29;20617;-61
2022/04/08 10:23:40;;;;;;;6.55;1.25;;;;;;;;;;4936277;29;20552;-61
2022/04/08 10:26:16;;;;;;;3.72;0.88;;;;;;;;;;4936256;29;20179;-62
2022/04/08 10:28:42;;;;;;;7.15;1.08;;;;;;;;;;4935925;29;20636;-62
2022/04/08 10:31:15;;;;;;;5.63;1.17;;;;;;;;;;4936036;29;20165;-63
2022/04/08 10:33:55;;;;;;;6.63;1.00;;;;;;;;;;4937428;29;20169;-63
2022/04/08 10:36:31;;;;;;;4.63;1.00;;;;;;;;;;4940504;29;20598;-62
2022/04/08 10:39:11;;;;;;;5.55;1.05;;;;;;;;;;4940178;29;20195;-62
2022/04/08 10:41:44;;;;;;;6.40;1.30;;;;;;;;;;4939856;29;20149;-62
2022/04/08 10:44:10;;;;;;;4.75;1.00;;;;;;;;;;4939987;29;20207;-62
2022/04/08 10:46:36;;;;;;;4.97;1.35;;;;;;;;;;4940426;29;20260;-62
2022/04/08 10:49:02;;;;;;;6.50;1.23;;;;;;;;;;4939899;29;20283;-62
2022/04/08 10:51:30;;;;;;;5.53;1.40;;;;;;;;;;4940041;29;20668;-62
2022/04/08 10:54:03;;;;;;;2.33;1.15;;;;;;;;;;4940123;29;20173;-62
2022/04/08 10:56:34;;;;;;;4.72;1.20;;;;;;;;;;4939899;29;20161;-62
2022/04/08 10:59:00;;;;;;;5.28;1.10;;;;;;;;;;4941046;29;20169;-62
2022/04/08 11:01:27;;;;;;;2.72;1.10;;;;;;;;;;4941116;29;20168;-62
2022/04/08 11:03:58;;;;;;;3.05;1.25;;;;;;;;;;4940533;29;20173;-62
2022/04/08 11:06:25;;;;;;;3.83;1.33;;;;;;;;;;4940755;29;20283;-61
2022/04/08 11:08:51;;;;;;;3.28;1.30;;;;;;;;;;4940033;29;20574;-62
2022/04/08 11:11:27;;;;;;;2.47;0.90;;;;;;;;;;4940563;29;20168;-64
2022/04/08 11:13:56;;;;;;;2.92;0.93;;;;;;;;;;4955661;29;20168;-63
2022/04/08 11:16:22;;;;;;;2.72;0.90;;;;;;;;;;4948106;29;20173;-63
2022/04/08 11:18:48;;;;;;;4.68;1.30;;;;;;;;;;4940994;29;20177;-63
2022/04/08 11:21:23;;;;;;;4.95;1.13;;;;;;;;;;4942831;29;20184;-63
2022/04/08 11:23:57;;;;;;;4.68;1.45;;;;;;;;;;4942681;29;20153;-62
2022/04/08 11:26:23;;;;;;;5.47;1.35;;;;;;;;;;4941037;29;20196;-62
2022/04/08 11:28:49;;;;;;;2.38;1.27;;;;;;;;;;4941257;29;20216;-62
2022/04/08 11:31:18;;;;;;;3.25;0.90;;;;;;;;;;4940071;29;20244;-63
2022/04/08 11:33:44;;;;;;;2.17;0.93;;;;;;;;;;4939672;29;20199;-62
2022/04/08 11:36:10;;;;;;;3.92;1.15;;;;;;;;;;4939479;29;20197;-62
2022/04/08 11:38:36;;;;;;;6.90;1.17;;;;;;;;;;4939152;29;20216;-62
2022/04/08 11:41:04;;;;;;;6.32;0.90;;;;;;;;;;4938975;29;20507;-62
2022/04/08 11:43:30;;;;;;;5.70;1.08;;;;;;;;;;4939261;29;20196;-62
2022/04/08 11:45:57;;;;;;;4.45;0.90;;;;;;;;;;4938726;29;20175;-62
2022/04/08 11:48:23;;;;;;;2.30;0.57;;;;;;;;;;4938872;29;20474;-60
2022/04/08 11:50:50;;;;;;;6.47;1.38;;;;;;;;;;4938537;29;20165;-61
2022/04/08 11:53:20;;;;;;;6.35;0.93;;;;;;;;;;4938810;29;20261;-62
2022/04/08 11:55:56;;;;;;;3.20;0.90;;;;;;;;;;4938794;29;20196;-61
2022/04/08 11:58:22;;;;;;;2.22;0.80;;;;;;;;;;4938966;29;20173;-61
2022/04/08 12:00:49;;;;;;;3.35;0.60;;;;;;;;;;4938556;29;20165;-63
2022/04/08 12:03:22;;;;;;;4.15;0.80;;;;;;;;;;4939127;29;20177;-62
2022/04/08 12:05:49;;;;;;;1.45;0.70;;;;;;;;;;4938461;29;20173;-62
2022/04/08 12:08:15;;;;;;;5.07;0.82;;;;;;;;;;4938511;29;20176;-62
2022/04/08 12:10:41;;;;;;;3.40;0.80;;;;;;;;;;4938583;29;20284;-62
2022/04/08 12:13:17;;;;;;;2.70;0.80;;;;;;;;;;4938652;29;20566;-61
2022/04/08 12:15:48;;;;;;;2.92;0.90;;;;;;;;;;4938735;29;20255;-61
2022/04/08 12:18:21;;;;;;;4.40;1.02;;;;;;;;;;4938487;29;20193;-60
2022/04/08 12:20:52;;;;;;;4.85;1.00;;;;;;;;;;4938312;29;20167;-61
2022/04/08 12:23:21;;;;;;;1.67;0.63;;;;;;;;;;4938410;29;20173;-59
2022/04/08 12:25:49;;;;;;;4.53;1.00;;;;;;;;;;4937987;29;20660;-61
2022/04/08 12:28:15;;;;;;;4.00;0.85;;;;;;;;;;4938515;29;20181;-61
2022/04/08 12:30:41;;;;;;;4.25;1.00;;;;;;;;;;4938059;29;20716;-62
2022/04/08 12:33:07;;;;;;;3.08;0.70;;;;;;;;;;4938565;29;20609;-61
2022/04/08 12:35:33;;;;;;;1.48;0.63;;;;;;;;;;4938965;29;20172;-61
2022/04/08 12:37:59;;;;;;;2.92;1.02;;;;;;;;;;4939540;29;20169;-61
2022/04/08 12:40:25;;;;;;;2.85;0.80;;;;;;;;;;4938390;29;20260;-61
2022/04/08 12:42:51;;;;;;;3.90;1.00;;;;;;;;;;4938445;29;20223;-61
2022/04/08 12:45:17;;;;;;;3.83;1.00;;;;;;;;;;4939503;29;20173;-61
2022/04/08 12:47:43;;;;;;;1.65;0.77;;;;;;;;;;4940095;29;20629;-61
2022/04/08 12:50:11;;;;;;;4.38;0.85;;;;;;;;;;4939225;29;20219;-62
2022/04/08 12:52:37;;;;;;;1.52;0.50;;;;;;;;;;4937790;29;20172;-61
2022/04/08 12:55:04;;;;;;;2.88;0.75;;;;;;;;;;4937769;29;20493;-61
2022/04/08 12:57:32;;;;;;;1.60;0.45;;;;;;;;;;4936721;29;20192;-61
2022/04/08 12:59:58;;;;;;;1.83;0.70;;;;;;;;;;4937380;29;20165;-62
2022/04/08 13:02:24;;;;;;;2.10;0.80;;;;;;;;;;4937548;29;20169;-61
2022/04/08 13:04:50;;;;;;;2.35;0.73;;;;;;;;;;4938124;29;20606;-61
2022/04/08 13:07:16;;;;;;;3.35;0.95;;;;;;;;;;4937363;29;20173;-61
2022/04/08 13:09:42;;;;;;;4.15;0.90;;;;;;;;;;4937668;29;20553;-62
2022/04/08 13:12:10;;;;;;;2.97;0.77;;;;;;;;;;4952275;29;20255;-61
2022/04/08 13:14:36;;;;;;;2.03;0.80;;;;;;;;;;4937918;29;20192;-61
2022/04/08 13:17:02;;;;;;;2.97;0.70;;;;;;;;;;4936849;29;20514;-61
2022/04/08 13:19:28;;;;;;;3.63;1.23;;;;;;;;;;4937269;29;20169;-61
2022/04/08 13:21:54;;;;;;;3.63;1.00;;;;;;;;;;4937207;29;20620;-61
2022/04/08 13:24:21;;;;;;;2.33;0.60;;;;;;;;;;4937578;29;20161;-61
2022/04/08 13:26:47;;;;;;;5.88;0.85;;;;;;;;;;4937239;29;20606;-61
2022/04/08 13:29:12;;;;;;;3.28;0.90;;;;;;;;;;4937255;29;20196;-61
2022/04/08 13:31:38;;;;;;;2.45;0.80;;;;;;;;;;4937196;29;20169;-61
2022/04/08 13:34:04;;;;;;;3.40;0.70;;;;;;;;;;4941536;29;20560;-62
2022/04/08 13:36:30;;;;;;;1.63;0.50;;;;;;;;;;4945792;29;20218;-61
2022/04/08 13:38:56;;;;;;;3.47;0.80;;;;;;;;;;4946242;29;20177;-61
2022/04/08 13:41:22;;;;;;;4.63;0.95;;;;;;;;;;4945793;29;20177;-61
2022/04/08 13:43:48;;;;;;;3.65;0.70;;;;;;;;;;4948866;29;20196;-61
2022/04/08 13:46:14;;;;;;;4.88;0.90;;;;;;;;;;4949589;29;20184;-61
2022/04/08 13:48:40;;;;;;;4.65;0.80;;;;;;;;;;4949138;29;20564;-61
2022/04/08 13:51:06;;;;;;;4.53;0.82;;;;;;;;;;4951522;29;20219;-61
2022/04/08 13:53:32;;;;;;;3.47;0.80;;;;;;;;;;4957481;29;20169;-61
2022/04/08 13:55:58;;;;;;;5.10;0.90;;;;;;;;;;4956762;29;20167;-62
2022/04/08 13:58:24;;;;;;;3.20;0.95;;;;;;;;;;4956863;29;20251;-61
2022/04/08 14:00:50;;;;;;;5.10;1.27;;;;;;;;;;4949954;29;20246;-61
2022/04/08 14:03:16;;;;;;;4.68;1.15;;;;;;;;;;4940628;29;20168;-61
2022/04/08 14:05:42;;;;;;;2.90;1.08;;;;;;;;;;4936774;29;20173;-62
2022/04/08 14:08:08;;;;;;;5.35;0.98;;;;;;;;;;4936548;29;20316;-61
2022/04/08 14:10:34;;;;;;;3.95;1.13;;;;;;;;;;4936524;29;20255;-61
2022/04/08 14:13:03;;;;;;;4.18;1.10;;;;;;;;;;4936681;29;20606;-61
2022/04/08 14:15:29;;;;;;;2.65;0.80;;;;;;;;;;4936705;29;20173;-61
2022/04/08 14:17:55;;;;;;;3.28;0.77;;;;;;;;;;4936363;29;20188;-61
2022/04/08 14:20:21;;;;;;;3.90;0.98;;;;;;;;;;4936416;29;20628;-60
2022/04/08 14:22:47;;;;;;;3.72;0.75;;;;;;;;;;4936595;29;20188;-61
2022/04/08 14:25:13;;;;;;;3.35;1.15;;;;;;;;;;4936344;29;20173;-61
2022/04/08 14:27:39;;;;;;;4.95;0.90;;;;;;;;;;4936484;29;20207;-60
2022/04/08 14:30:06;;;;;;;3.00;0.80;;;;;;;;;;4936124;29;20228;-60
2022/04/08 14:32:33;;;;;;;4.75;0.73;;;;;;;;;;4936351;29;20680;-60
2022/04/08 14:34:59;;;;;;;9.38;1.08;;;;;;;;;;4936784;29;20177;-61
2022/04/08 14:37:25;;;;;;;3.17;0.80;;;;;;;;;;4936446;29;20511;-60
2022/04/08 14:39:51;;;;;;;5.07;0.90;;;;;;;;;;4936761;29;20192;-61